TA02 weather

Howard Field
Rhome, Texas, United States

Public forecast

Using degrees Fahrenheit for public forecast. Weather courtesy of forecast.io.

Closest aviation weather report (METAR) to Howard Field

Closest report is Fort Worth Alliance Airport, 10.1 nm (18.7 km) SE. Retrieved 2020/06/07 04:53 UTC (59 minutes ago):

KAFW 070453Z 11006KT 10SM FEW070 FEW250 29/21 A2986 RMK AO2 SLP093 T02940206

Closest aviation forecast (TAF) to Howard Field

Forecast is more than 6 hours old.

Closest forecast is Fort Worth Alliance Airport, 10.1 nm (18.7 km) SE. Retrieved 2020/06/06 18:23 UTC (11 hours ago):

TAF KAFW 061723Z 0618/0718 09007KT P6SM FEW060 SCT250